Terminal Aerodrome Forecast
Issued by NWS

Home | Current Version | Previous Version | Text Only | Print | Product List | Glossary On
Versions: 1 2 3 4 5 6 7 8 9 10 11 12 13 14
000
FTAK31 PAFA 011726
TAFATA
TAF
PATA 011726Z 0118/0218 10004KT P6SM SCT100
     FM012000 10006KT P6SM VCSH SCT100 BKN200=

USA.gov is the U.S. government's official web portal to all federal, state and local government web resources and services.